sensor_id;sensor_type;location;lat;lon;timestamp;pressure;altitude;pressure_sealevel;temperature;humidity
68871;BME280;55906;52.278;6.808;2024-02-14T00:01:58;101259.31;;;8.69;100.00
68871;BME280;55906;52.278;6.808;2024-02-14T00:04:25;101260.97;;;8.67;100.00
68871;BME280;55906;52.278;6.808;2024-02-14T00:06:51;101251.50;;;8.71;100.00
68871;BME280;55906;52.278;6.808;2024-02-14T00:09:18;101252.16;;;8.65;100.00
68871;BME280;55906;52.278;6.808;2024-02-14T00:11:46;101248.44;;;8.60;100.00
68871;BME280;55906;52.278;6.808;2024-02-14T00:14:13;101241.78;;;8.68;100.00
68871;BME280;55906;52.278;6.808;2024-02-14T00:16:40;101231.00;;;8.60;100.00
68871;BME280;55906;52.278;6.808;2024-02-14T00:19:07;101231.28;;;8.68;100.00
68871;BME280;55906;52.278;6.808;2024-02-14T00:21:33;101242.69;;;8.69;100.00
68871;BME280;55906;52.278;6.808;2024-02-14T00:24:01;101220.91;;;8.71;100.00
68871;BME280;55906;52.278;6.808;2024-02-14T00:26:27;101245.28;;;8.69;100.00
68871;BME280;55906;52.278;6.808;2024-02-14T00:28:55;101238.44;;;8.72;100.00
68871;BME280;55906;52.278;6.808;2024-02-14T00:31:22;101239.22;;;8.70;100.00
68871;BME280;55906;52.278;6.808;2024-02-14T00:33:49;101243.81;;;8.75;100.00
68871;BME280;55906;52.278;6.808;2024-02-14T00:36:16;101235.00;;;8.73;100.00
68871;BME280;55906;52.278;6.808;2024-02-14T00:38:43;101229.75;;;8.73;100.00
68871;BME280;55906;52.278;6.808;2024-02-14T00:41:10;101236.06;;;8.78;100.00
68871;BME280;55906;52.278;6.808;2024-02-14T00:43:37;101240.41;;;8.78;100.00
68871;BME280;55906;52.278;6.808;2024-02-14T00:46:05;101231.88;;;8.83;100.00
68871;BME280;55906;52.278;6.808;2024-02-14T00:48:32;101237.66;;;8.75;100.00
68871;BME280;55906;52.278;6.808;2024-02-14T00:50:58;101216.75;;;8.76;100.00
68871;BME280;55906;52.278;6.808;2024-02-14T00:53:25;101219.47;;;8.79;100.00
68871;BME280;55906;52.278;6.808;2024-02-14T00:55:58;101216.97;;;8.82;100.00
68871;BME280;55906;52.278;6.808;2024-02-14T00:58:24;101219.47;;;8.79;100.00
68871;BME280;55906;52.278;6.808;2024-02-14T01:00:51;101227.53;;;8.84;100.00
68871;BME280;55906;52.278;6.808;2024-02-14T01:03:20;101212.09;;;8.91;100.00
68871;BME280;55906;52.278;6.808;2024-02-14T01:05:47;101211.25;;;8.92;100.00
68871;BME280;55906;52.278;6.808;2024-02-14T01:08:14;101208.50;;;8.89;100.00
68871;BME280;55906;52.278;6.808;2024-02-14T01:10:40;101207.91;;;8.96;100.00
68871;BME280;55906;52.278;6.808;2024-02-14T01:13:07;101207.91;;;8.96;100.00
68871;BME280;55906;52.278;6.808;2024-02-14T01:15:34;101202.59;;;8.95;100.00
68871;BME280;55906;52.278;6.808;2024-02-14T01:18:01;101195.63;;;8.95;100.00
68871;BME280;55906;52.278;6.808;2024-02-14T01:20:29;101189.75;;;9.03;100.00
68871;BME280;55906;52.278;6.808;2024-02-14T01:22:55;101187.91;;;9.00;100.00
68871;BME280;55906;52.278;6.808;2024-02-14T01:25:22;101177.47;;;9.02;100.00
68871;BME280;55906;52.278;6.808;2024-02-14T01:27:49;101178.97;;;8.95;100.00
68871;BME280;55906;52.278;6.808;2024-02-14T01:30:18;101184.41;;;8.99;100.00
68871;BME280;55906;52.278;6.808;2024-02-14T01:32:45;101179.03;;;8.96;100.00
68871;BME280;55906;52.278;6.808;2024-02-14T01:38:35;101174.03;;;9.03;100.00
68871;BME280;55906;52.278;6.808;2024-02-14T01:41:02;101167.81;;;9.01;100.00
68871;BME280;55906;52.278;6.808;2024-02-14T01:43:29;101157.44;;;9.04;100.00
68871;BME280;55906;52.278;6.808;2024-02-14T01:46:04;101162.69;;;9.04;100.00
68871;BME280;55906;52.278;6.808;2024-02-14T01:48:31;101159.34;;;9.08;100.00
68871;BME280;55906;52.278;6.808;2024-02-14T01:50:59;101164.53;;;9.06;100.00
68871;BME280;55906;52.278;6.808;2024-02-14T01:53:27;101161.97;;;9.08;100.00
68871;BME280;55906;52.278;6.808;2024-02-14T01:55:59;101162.09;;;9.11;100.00
68871;BME280;55906;52.278;6.808;2024-02-14T01:58:26;101154.03;;;9.06;100.00
68871;BME280;55906;52.278;6.808;2024-02-14T02:00:53;101151.50;;;9.09;100.00
68871;BME280;55906;52.278;6.808;2024-02-14T02:03:22;101152.50;;;9.11;100.00
68871;BME280;55906;52.278;6.808;2024-02-14T02:05:50;101141.91;;;9.10;100.00
68871;BME280;55906;52.278;6.808;2024-02-14T02:08:17;101143.94;;;9.17;100.00
68871;BME280;55906;52.278;6.808;2024-02-14T02:10:44;101143.06;;;9.16;100.00
68871;BME280;55906;52.278;6.808;2024-02-14T02:13:12;101140.50;;;9.18;100.00
68871;BME280;55906;52.278;6.808;2024-02-14T02:15:40;101139.47;;;9.14;100.00
68871;BME280;55906;52.278;6.808;2024-02-14T02:18:10;101142.38;;;9.22;100.00
68871;BME280;55906;52.278;6.808;2024-02-14T02:20:37;101119.50;;;9.18;100.00
68871;BME280;55906;52.278;6.808;2024-02-14T02:23:05;101131.88;;;9.22;100.00
68871;BME280;55906;52.278;6.808;2024-02-14T02:25:34;101134.50;;;9.22;100.00
68871;BME280;55906;52.278;6.808;2024-02-14T02:28:01;101132.00;;;9.25;100.00
68871;BME280;55906;52.278;6.808;2024-02-14T02:30:28;101128.38;;;9.21;100.00
68871;BME280;55906;52.278;6.808;2024-02-14T02:32:55;101130.81;;;9.17;100.00
68871;BME280;55906;52.278;6.808;2024-02-14T02:35:21;101123.06;;;9.20;100.00
68871;BME280;55906;52.278;6.808;2024-02-14T02:37:49;101128.53;;;9.26;100.00
68871;BME280;55906;52.278;6.808;2024-02-14T02:40:18;101133.78;;;9.26;100.00
68871;BME280;55906;52.278;6.808;2024-02-14T02:42:46;101128.31;;;9.20;100.00
68871;BME280;55906;52.278;6.808;2024-02-14T02:45:13;101125.94;;;9.27;100.00
68871;BME280;55906;52.278;6.808;2024-02-14T02:47:40;101116.91;;;9.19;100.00
68871;BME280;55906;52.278;6.808;2024-02-14T02:50:07;101115.28;;;9.23;100.00
68871;BME280;55906;52.278;6.808;2024-02-14T02:52:33;101118.09;;;9.27;100.00
68871;BME280;55906;52.278;6.808;2024-02-14T02:55:00;101118.09;;;9.27;100.00
68871;BME280;55906;52.278;6.808;2024-02-14T02:57:28;101112.19;;;9.35;100.00
68871;BME280;55906;52.278;6.808;2024-02-14T02:59:57;101116.47;;;9.31;100.00
68871;BME280;55906;52.278;6.808;2024-02-14T03:02:24;101116.63;;;9.36;100.00
68871;BME280;55906;52.278;6.808;2024-02-14T03:04:51;101132.31;;;9.34;100.00
68871;BME280;55906;52.278;6.808;2024-02-14T03:07:18;101118.50;;;9.40;100.00
68871;BME280;55906;52.278;6.808;2024-02-14T03:09:45;101119.91;;;9.30;100.00
68871;BME280;55906;52.278;6.808;2024-02-14T03:12:12;101120.03;;;9.33;100.00
68871;BME280;55906;52.278;6.808;2024-02-14T03:14:42;101121.34;;;9.46;100.00
68871;BME280;55906;52.278;6.808;2024-02-14T03:17:09;101126.53;;;9.44;100.00
68871;BME280;55906;52.278;6.808;2024-02-14T03:19:36;101119.50;;;9.43;100.00
68871;BME280;55906;52.278;6.808;2024-02-14T03:22:04;101109.94;;;9.45;100.00
68871;BME280;55906;52.278;6.808;2024-02-14T03:24:34;101113.47;;;9.46;100.00
68871;BME280;55906;52.278;6.808;2024-02-14T03:27:03;101110.84;;;9.46;100.00
68871;BME280;55906;52.278;6.808;2024-02-14T03:29:31;101118.19;;;9.56;100.00
68871;BME280;55906;52.278;6.808;2024-02-14T03:31:59;101128.63;;;9.54;100.00
68871;BME280;55906;52.278;6.808;2024-02-14T03:34:30;101119.13;;;9.58;100.00
68871;BME280;55906;52.278;6.808;2024-02-14T03:36:59;101130.44;;;9.55;100.00
68871;BME280;55906;52.278;6.808;2024-02-14T03:39:26;101104.31;;;9.60;100.00
68871;BME280;55906;52.278;6.808;2024-02-14T03:41:53;101120.88;;;9.57;100.00
68871;BME280;55906;52.278;6.808;2024-02-14T03:44:21;101126.13;;;9.57;100.00
68871;BME280;55906;52.278;6.808;2024-02-14T03:46:48;101119.19;;;9.59;100.00
68871;BME280;55906;52.278;6.808;2024-02-14T03:49:16;101122.75;;;9.61;100.00
68871;BME280;55906;52.278;6.808;2024-02-14T03:51:43;101125.47;;;9.65;100.00
68871;BME280;55906;52.278;6.808;2024-02-14T03:54:10;101129.91;;;9.66;100.00
68871;BME280;55906;52.278;6.808;2024-02-14T03:56:37;101123.06;;;9.71;100.00
68871;BME280;55906;52.278;6.808;2024-02-14T03:59:04;101115.03;;;9.66;100.00
68871;BME280;55906;52.278;6.808;2024-02-14T04:01:33;101119.50;;;9.69;100.00
68871;BME280;55906;52.278;6.808;2024-02-14T04:03:59;101122.38;;;9.76;100.00
68871;BME280;55906;52.278;6.808;2024-02-14T04:06:28;101122.22;;;9.72;100.00
68871;BME280;55906;52.278;6.808;2024-02-14T04:08:57;101133.81;;;9.78;100.00
68871;BME280;55906;52.278;6.808;2024-02-14T04:11:23;101127.66;;;9.78;100.00
68871;BME280;55906;52.278;6.808;2024-02-14T04:13:50;101117.16;;;9.78;100.00
68871;BME280;55906;52.278;6.808;2024-02-14T04:16:19;101141.97;;;9.86;100.00
68871;BME280;55906;52.278;6.808;2024-02-14T04:18:45;101140.06;;;9.82;100.00
68871;BME280;55906;52.278;6.808;2024-02-14T04:21:12;101138.19;;;9.78;100.00
68871;BME280;55906;52.278;6.808;2024-02-14T04:23:41;101135.59;;;9.79;100.00
68871;BME280;55906;52.278;6.808;2024-02-14T04:26:07;101148.16;;;9.88;100.00
68871;BME280;55906;52.278;6.808;2024-02-14T04:28:34;101146.38;;;9.87;100.00
68871;BME280;55906;52.278;6.808;2024-02-14T04:31:01;101140.28;;;9.88;100.00
68871;BME280;55906;52.278;6.808;2024-02-14T04:33:28;101131.50;;;9.87;100.00
68871;BME280;55906;52.278;6.808;2024-02-14T04:35:57;101130.44;;;9.82;100.00
68871;BME280;55906;52.278;6.808;2024-02-14T04:38:24;101152.50;;;9.87;100.00
68871;BME280;55906;52.278;6.808;2024-02-14T04:40:55;101143.16;;;9.95;100.00
68871;BME280;55906;52.278;6.808;2024-02-14T04:43:22;101142.94;;;9.89;100.00
68871;BME280;55906;52.278;6.808;2024-02-14T04:45:48;101142.22;;;9.93;100.00
68871;BME280;55906;52.278;6.808;2024-02-14T04:48:16;101150.03;;;9.92;100.00
68871;BME280;55906;52.278;6.808;2024-02-14T04:50:43;101148.34;;;9.94;100.00
68871;BME280;55906;52.278;6.808;2024-02-14T04:53:09;101146.78;;;9.99;100.00
68871;BME280;55906;52.278;6.808;2024-02-14T04:55:36;101163.59;;;10.04;100.00
68871;BME280;55906;52.278;6.808;2024-02-14T04:58:04;101163.44;;;10.00;100.00
68871;BME280;55906;52.278;6.808;2024-02-14T05:00:32;101187.03;;;9.98;100.00
68871;BME280;55906;52.278;6.808;2024-02-14T05:02:58;101164.41;;;10.03;100.00
68871;BME280;55906;52.278;6.808;2024-02-14T05:05:25;101165.38;;;10.05;100.00
68871;BME280;55906;52.278;6.808;2024-02-14T05:07:52;101165.31;;;10.04;100.00
68871;BME280;55906;52.278;6.808;2024-02-14T05:10:19;101171.25;;;9.98;100.00
68871;BME280;55906;52.278;6.808;2024-02-14T05:12:45;101179.41;;;10.06;100.00
68871;BME280;55906;52.278;6.808;2024-02-14T05:15:15;101173.44;;;10.11;100.00
68871;BME280;55906;52.278;6.808;2024-02-14T05:17:42;101175.94;;;10.07;100.00
68871;BME280;55906;52.278;6.808;2024-02-14T05:20:10;101173.59;;;10.16;100.00
68871;BME280;55906;52.278;6.808;2024-02-14T05:22:36;101184.06;;;10.14;100.00
68871;BME280;55906;52.278;6.808;2024-02-14T05:25:04;101187.72;;;10.19;100.00
68871;BME280;55906;52.278;6.808;2024-02-14T05:27:33;101198.25;;;10.19;100.00
68871;BME280;55906;52.278;6.808;2024-02-14T05:29:59;101187.69;;;10.18;100.00
68871;BME280;55906;52.278;6.808;2024-02-14T05:32:27;101194.03;;;10.23;100.00
68871;BME280;55906;52.278;6.808;2024-02-14T05:34:54;101189.66;;;10.23;100.00
68871;BME280;55906;52.278;6.808;2024-02-14T05:37:21;101186.31;;;10.29;100.00
68871;BME280;55906;52.278;6.808;2024-02-14T05:39:47;101195.75;;;10.22;100.00
68871;BME280;55906;52.278;6.808;2024-02-14T05:42:14;101189.06;;;10.32;100.00
68871;BME280;55906;52.278;6.808;2024-02-14T05:44:42;101207.22;;;10.24;100.00
68871;BME280;55906;52.278;6.808;2024-02-14T05:47:09;101197.94;;;10.36;100.00
68871;BME280;55906;52.278;6.808;2024-02-14T05:49:38;101218.03;;;10.34;100.00
68871;BME280;55906;52.278;6.808;2024-02-14T05:52:05;101211.13;;;10.37;100.00
68871;BME280;55906;52.278;6.808;2024-02-14T05:54:32;101190.03;;;10.36;100.00
68871;BME280;55906;52.278;6.808;2024-02-14T05:56:58;101201.50;;;10.38;100.00
68871;BME280;55906;52.278;6.808;2024-02-14T05:59:26;101210.34;;;10.40;100.00
68871;BME280;55906;52.278;6.808;2024-02-14T06:01:53;101219.25;;;10.43;100.00
68871;BME280;55906;52.278;6.808;2024-02-14T06:04:19;101199.00;;;10.41;100.00
68871;BME280;55906;52.278;6.808;2024-02-14T06:06:47;101213.09;;;10.43;100.00
68871;BME280;55906;52.278;6.808;2024-02-14T06:09:14;101209.72;;;10.47;100.00
68871;BME280;55906;52.278;6.808;2024-02-14T06:11:40;101219.44;;;10.49;100.00
68871;BME280;55906;52.278;6.808;2024-02-14T06:14:09;101221.13;;;10.47;100.00
68871;BME280;55906;52.278;6.808;2024-02-14T06:16:35;101229.91;;;10.48;100.00
68871;BME280;55906;52.278;6.808;2024-02-14T06:19:02;101230.97;;;10.53;100.00
68871;BME280;55906;52.278;6.808;2024-02-14T06:21:30;101235.28;;;10.51;100.00
68871;BME280;55906;52.278;6.808;2024-02-14T06:23:59;101232.75;;;10.54;100.00
68871;BME280;55906;52.278;6.808;2024-02-14T06:26:26;101241.56;;;10.56;100.00
68871;BME280;55906;52.278;6.808;2024-02-14T06:28:52;101245.06;;;10.55;100.00
68871;BME280;55906;52.278;6.808;2024-02-14T06:31:20;101238.09;;;10.57;100.00
68871;BME280;55906;52.278;6.808;2024-02-14T06:33:47;101239.13;;;10.62;100.00
68871;BME280;55906;52.278;6.808;2024-02-14T06:36:13;101245.94;;;10.55;100.00
68871;BME280;55906;52.278;6.808;2024-02-14T06:38:40;101255.72;;;10.60;100.00
68871;BME280;55906;52.278;6.808;2024-02-14T06:41:08;101255.03;;;10.65;100.00
68871;BME280;55906;52.278;6.808;2024-02-14T06:43:35;101263.91;;;10.69;100.00
68871;BME280;55906;52.278;6.808;2024-02-14T06:46:04;101255.91;;;10.66;100.00
68871;BME280;55906;52.278;6.808;2024-02-14T06:48:31;101262.81;;;10.62;100.00
68871;BME280;55906;52.278;6.808;2024-02-14T06:50:58;101261.97;;;10.63;100.00
68871;BME280;55906;52.278;6.808;2024-02-14T06:53:24;101256.84;;;10.68;100.00
68871;BME280;55906;52.278;6.808;2024-02-14T06:55:51;101269.06;;;10.66;100.00
68871;BME280;55906;52.278;6.808;2024-02-14T06:58:19;101257.66;;;10.65;100.00
68871;BME280;55906;52.278;6.808;2024-02-14T07:00:46;101275.31;;;10.69;100.00
68871;BME280;55906;52.278;6.808;2024-02-14T07:03:12;101285.94;;;10.72;100.00
68871;BME280;55906;52.278;6.808;2024-02-14T07:05:39;101276.34;;;10.74;100.00
68871;BME280;55906;52.278;6.808;2024-02-14T07:08:07;101288.53;;;10.71;100.00
68871;BME280;55906;52.278;6.808;2024-02-14T07:10:33;101286.88;;;10.74;100.00
68871;BME280;55906;52.278;6.808;2024-02-14T07:13:00;101288.63;;;10.74;100.00
68871;BME280;55906;52.278;6.808;2024-02-14T07:15:28;101292.25;;;10.77;100.00
68871;BME280;55906;52.278;6.808;2024-02-14T07:17:55;101288.56;;;10.72;100.00
68871;BME280;55906;52.278;6.808;2024-02-14T07:20:23;101301.19;;;10.82;100.00
68871;BME280;55906;52.278;6.808;2024-02-14T07:22:51;101294.19;;;10.83;100.00
68871;BME280;55906;52.278;6.808;2024-02-14T07:25:18;101298.41;;;10.78;100.00
68871;BME280;55906;52.278;6.808;2024-02-14T07:27:45;101287.81;;;10.76;100.00
68871;BME280;55906;52.278;6.808;2024-02-14T07:30:15;101299.59;;;10.87;100.00
68871;BME280;55906;52.278;6.808;2024-02-14T07:32:43;101296.84;;;10.84;100.00
68871;BME280;55906;52.278;6.808;2024-02-14T07:35:10;101289.94;;;10.88;100.00
68871;BME280;55906;52.278;6.808;2024-02-14T07:37:38;101302.22;;;10.87;100.00
68871;BME280;55906;52.278;6.808;2024-02-14T07:40:06;101306.53;;;10.85;100.00
68871;BME280;55906;52.278;6.808;2024-02-14T07:42:33;101308.97;;;10.79;100.00
68871;BME280;55906;52.278;6.808;2024-02-14T07:44:59;101309.06;;;10.82;100.00
68871;BME280;55906;52.278;6.808;2024-02-14T07:47:28;101307.63;;;10.92;100.00
68871;BME280;55906;52.278;6.808;2024-02-14T07:49:56;101300.53;;;10.89;100.00
68871;BME280;55906;52.278;6.808;2024-02-14T07:52:23;101316.41;;;10.93;100.00
68871;BME280;55906;52.278;6.808;2024-02-14T07:54:51;101314.53;;;10.88;100.00
68871;BME280;55906;52.278;6.808;2024-02-14T07:57:19;101317.44;;;10.98;100.00
68871;BME280;55906;52.278;6.808;2024-02-14T07:59:45;101317.53;;;11.01;100.00
68871;BME280;55906;52.278;6.808;2024-02-14T08:02:12;101318.28;;;10.97;100.00
68871;BME280;55906;52.278;6.808;2024-02-14T08:04:38;101318.25;;;10.95;100.00
68871;BME280;55906;52.278;6.808;2024-02-14T08:07:06;101324.38;;;10.94;100.00
68871;BME280;55906;52.278;6.808;2024-02-14T08:09:33;101319.34;;;11.02;100.00
68871;BME280;55906;52.278;6.808;2024-02-14T08:12:00;101319.28;;;11.00;100.00
68871;BME280;55906;52.278;6.808;2024-02-14T08:14:26;101322.72;;;10.98;100.00
68871;BME280;55906;52.278;6.808;2024-02-14T08:16:53;101316.66;;;11.00;100.00
68871;BME280;55906;52.278;6.808;2024-02-14T08:19:20;101319.19;;;10.97;100.00
68871;BME280;55906;52.278;6.808;2024-02-14T08:21:46;101327.97;;;10.98;100.00
68871;BME280;55906;52.278;6.808;2024-02-14T08:24:14;101323.72;;;11.01;100.00
68871;BME280;55906;52.278;6.808;2024-02-14T08:26:42;101314.16;;;11.05;100.00
68871;BME280;55906;52.278;6.808;2024-02-14T08:29:09;101330.25;;;11.14;100.00
68871;BME280;55906;52.278;6.808;2024-02-14T08:31:37;101324.03;;;11.12;100.00
68871;BME280;55906;52.278;6.808;2024-02-14T08:34:03;101334.66;;;11.15;100.00
68871;BME280;55906;52.278;6.808;2024-02-14T08:36:30;101335.59;;;11.17;100.00
68871;BME280;55906;52.278;6.808;2024-02-14T08:38:57;101334.56;;;11.12;100.00
68871;BME280;55906;52.278;6.808;2024-02-14T08:41:25;101342.00;;;11.25;100.00
68871;BME280;55906;52.278;6.808;2024-02-14T08:43:51;101332.25;;;11.22;100.00
68871;BME280;55906;52.278;6.808;2024-02-14T08:46:18;101335.84;;;11.25;100.00
68871;BME280;55906;52.278;6.808;2024-02-14T08:48:45;101342.91;;;11.26;100.00
68871;BME280;55906;52.278;6.808;2024-02-14T08:51:12;101334.09;;;11.25;100.00
68871;BME280;55906;52.278;6.808;2024-02-14T08:53:39;101349.06;;;11.26;100.00
68871;BME280;55906;52.278;6.808;2024-02-14T08:56:07;101347.31;;;11.27;100.00
68871;BME280;55906;52.278;6.808;2024-02-14T08:58:37;101353.63;;;11.32;100.00
68871;BME280;55906;52.278;6.808;2024-02-14T09:01:04;101349.38;;;11.37;100.00
68871;BME280;55906;52.278;6.808;2024-02-14T09:03:32;101351.94;;;11.34;100.00
68871;BME280;55906;52.278;6.808;2024-02-14T09:05:59;101359.78;;;11.32;100.00
68871;BME280;55906;52.278;6.808;2024-02-14T09:08:27;101355.31;;;11.30;100.00
68871;BME280;55906;52.278;6.808;2024-02-14T09:10:56;101354.59;;;11.35;100.00
68871;BME280;55906;52.278;6.808;2024-02-14T09:13:22;101364.38;;;11.39;100.00
68871;BME280;55906;52.278;6.808;2024-02-14T09:15:51;101366.94;;;11.36;100.00
68871;BME280;55906;52.278;6.808;2024-02-14T09:18:18;101354.69;;;11.38;100.00
68871;BME280;55906;52.278;6.808;2024-02-14T09:20:45;101355.81;;;11.46;100.00
68871;BME280;55906;52.278;6.808;2024-02-14T09:23:12;101375.97;;;11.44;100.00
68871;BME280;55906;52.278;6.808;2024-02-14T09:25:42;101363.72;;;11.46;100.00
68871;BME280;55906;52.278;6.808;2024-02-14T09:28:09;101375.34;;;11.53;100.00
68871;BME280;55906;52.278;6.808;2024-02-14T09:30:36;101368.41;;;11.57;100.00
68871;BME280;55906;52.278;6.808;2024-02-14T09:33:04;101370.25;;;11.59;100.00
68871;BME280;55906;52.278;6.808;2024-02-14T09:35:31;101373.66;;;11.55;100.00
68871;BME280;55906;52.278;6.808;2024-02-14T09:37:58;101366.72;;;11.59;100.00
68871;BME280;55906;52.278;6.808;2024-02-14T09:40:25;101361.31;;;11.54;100.00
68871;BME280;55906;52.278;6.808;2024-02-14T09:42:53;101364.28;;;11.65;100.00
68871;BME280;55906;52.278;6.808;2024-02-14T09:45:22;101379.94;;;11.60;100.00
68871;BME280;55906;52.278;6.808;2024-02-14T09:47:51;101374.72;;;11.62;100.00
68871;BME280;55906;52.278;6.808;2024-02-14T09:50:20;101376.69;;;11.69;100.00
68871;BME280;55906;52.278;6.808;2024-02-14T09:52:47;101388.06;;;11.68;100.00
68871;BME280;55906;52.278;6.808;2024-02-14T09:55:15;101373.19;;;11.70;100.00
68871;BME280;55906;52.278;6.808;2024-02-14T09:57:43;101375.16;;;11.75;100.00
68871;BME280;55906;52.278;6.808;2024-02-14T10:00:10;101380.38;;;11.74;100.00
68871;BME280;55906;52.278;6.808;2024-02-14T10:02:40;101390.84;;;11.71;100.00
68871;BME280;55906;52.278;6.808;2024-02-14T10:05:07;101386.19;;;11.64;100.00
68871;BME280;55906;52.278;6.808;2024-02-14T10:07:41;101388.00;;;11.65;100.00
68871;BME280;55906;52.278;6.808;2024-02-14T10:10:08;101394.25;;;11.68;100.00
68871;BME280;55906;52.278;6.808;2024-02-14T10:12:35;101394.16;;;11.65;100.00
68871;BME280;55906;52.278;6.808;2024-02-14T10:15:02;101399.63;;;11.71;100.00
68871;BME280;55906;52.278;6.808;2024-02-14T10:17:29;101394.19;;;11.67;100.00
68871;BME280;55906;52.278;6.808;2024-02-14T10:19:57;101397.72;;;11.67;100.00
68871;BME280;55906;52.278;6.808;2024-02-14T10:22:24;101387.13;;;11.66;100.00
68871;BME280;55906;52.278;6.808;2024-02-14T10:24:52;101390.72;;;11.68;100.00
68871;BME280;55906;52.278;6.808;2024-02-14T10:27:20;101394.47;;;11.74;100.00
68871;BME280;55906;52.278;6.808;2024-02-14T10:29:47;101397.25;;;11.79;100.00
68871;BME280;55906;52.278;6.808;2024-02-14T10:32:15;101397.31;;;11.80;100.00
68871;BME280;55906;52.278;6.808;2024-02-14T10:34:43;101386.97;;;11.88;100.00
68871;BME280;55906;52.278;6.808;2024-02-14T10:37:13;101398.56;;;11.93;100.00
68871;BME280;55906;52.278;6.808;2024-02-14T10:39:42;101407.41;;;11.95;100.00
68871;BME280;55906;52.278;6.808;2024-02-14T10:42:12;101408.38;;;11.99;100.00
68871;BME280;55906;52.278;6.808;2024-02-14T10:44:39;101410.94;;;11.96;100.00
68871;BME280;55906;52.278;6.808;2024-02-14T10:47:09;101413.66;;;11.99;100.00
68871;BME280;55906;52.278;6.808;2024-02-14T10:49:37;101402.13;;;11.95;100.00
68871;BME280;55906;52.278;6.808;2024-02-14T10:52:07;101411.88;;;11.98;100.00
68871;BME280;55906;52.278;6.808;2024-02-14T10:54:35;101404.50;;;11.86;100.00
68871;BME280;55906;52.278;6.808;2024-02-14T10:57:06;101402.97;;;11.94;100.00
68871;BME280;55906;52.278;6.808;2024-02-14T10:59:41;101411.97;;;12.01;100.00
68871;BME280;55906;52.278;6.808;2024-02-14T11:02:10;101408.34;;;11.97;100.00
68871;BME280;55906;52.278;6.808;2024-02-14T11:04:37;101411.59;;;11.89;100.00
68871;BME280;55906;52.278;6.808;2024-02-14T11:07:09;101417.94;;;11.95;100.00
68871;BME280;55906;52.278;6.808;2024-02-14T11:09:36;101417.84;;;11.92;100.00
68871;BME280;55906;52.278;6.808;2024-02-14T11:12:04;101421.22;;;11.87;100.00
68871;BME280;55906;52.278;6.808;2024-02-14T11:14:34;101412.44;;;11.88;100.00
68871;BME280;55906;52.278;6.808;2024-02-14T11:17:03;101404.75;;;11.95;100.00
68871;BME280;55906;52.278;6.808;2024-02-14T11:19:35;101414.56;;;11.99;100.00
68871;BME280;55906;52.278;6.808;2024-02-14T11:22:10;101414.56;;;11.99;100.00
68871;BME280;55906;52.278;6.808;2024-02-14T11:24:38;101418.16;;;12.03;100.00
68871;BME280;55906;52.278;6.808;2024-02-14T11:27:09;101410.16;;;12.00;100.00
68871;BME280;55906;52.278;6.808;2024-02-14T11:29:38;101414.72;;;12.05;100.00
68871;BME280;55906;52.278;6.808;2024-02-14T11:32:06;101410.38;;;12.07;100.00
68871;BME280;55906;52.278;6.808;2024-02-14T11:34:35;101406.06;;;12.09;100.00
68871;BME280;55906;52.278;6.808;2024-02-14T11:37:02;101418.34;;;12.09;100.00
68871;BME280;55906;52.278;6.808;2024-02-14T11:39:29;101412.97;;;12.06;100.00
68871;BME280;55906;52.278;6.808;2024-02-14T11:41:57;101406.81;;;12.05;100.00
68871;BME280;55906;52.278;6.808;2024-02-14T11:44:24;101408.78;;;12.12;100.00
68871;BME280;55906;52.278;6.808;2024-02-14T11:46:52;101418.47;;;12.13;100.00
68871;BME280;55906;52.278;6.808;2024-02-14T11:49:20;101412.84;;;12.01;100.00
68871;BME280;55906;52.278;6.808;2024-02-14T11:51:48;101402.72;;;12.16;100.00
68871;BME280;55906;52.278;6.808;2024-02-14T11:54:15;101406.47;;;12.25;100.00
68871;BME280;55906;52.278;6.808;2024-02-14T11:56:43;101407.25;;;12.21;100.00
68871;BME280;55906;52.278;6.808;2024-02-14T11:59:10;101415.13;;;12.19;100.00
68871;BME280;55906;52.278;6.808;2024-02-14T12:01:37;101402.81;;;12.20;100.00
68871;BME280;55906;52.278;6.808;2024-02-14T12:04:05;101396.00;;;12.28;100.00
68871;BME280;55906;52.278;6.808;2024-02-14T12:06:35;101391.72;;;12.31;100.00
68871;BME280;55906;52.278;6.808;2024-02-14T12:09:03;101398.03;;;12.38;100.00
68871;BME280;55906;52.278;6.808;2024-02-14T12:11:31;101396.22;;;12.35;100.00
68871;BME280;55906;52.278;6.808;2024-02-14T12:14:01;101391.03;;;12.38;100.00
68871;BME280;55906;52.278;6.808;2024-02-14T12:16:28;101386.69;;;12.40;100.00
68871;BME280;55906;52.278;6.808;2024-02-14T12:19:06;101397.34;;;12.45;100.00
68871;BME280;55906;52.278;6.808;2024-02-14T12:21:42;101384.81;;;12.36;100.00
68871;BME280;55906;52.278;6.808;2024-02-14T12:24:09;101386.72;;;12.42;100.00
68871;BME280;55906;52.278;6.808;2024-02-14T12:26:37;101381.44;;;12.42;100.00
68871;BME280;55906;52.278;6.808;2024-02-14T12:29:05;101381.34;;;12.39;100.00
68871;BME280;55906;52.278;6.808;2024-02-14T12:31:32;101388.63;;;12.47;100.00
68871;BME280;55906;52.278;6.808;2024-02-14T12:33:59;101387.56;;;12.41;100.00
68871;BME280;55906;52.278;6.808;2024-02-14T12:36:27;101401.63;;;12.40;100.00
68871;BME280;55906;52.278;6.808;2024-02-14T12:38:56;101395.28;;;12.33;100.00
68871;BME280;55906;52.278;6.808;2024-02-14T12:41:23;101390.09;;;12.36;100.00
68871;BME280;55906;52.278;6.808;2024-02-14T12:43:51;101392.06;;;12.45;100.00
68871;BME280;55906;52.278;6.808;2024-02-14T12:46:18;101391.16;;;12.43;100.00
68871;BME280;55906;52.278;6.808;2024-02-14T12:48:45;101397.44;;;12.48;100.00